Time;durP1;ratioP1;P1;durP2;ratioP2;P2;SDS_P1;SDS_P2;PMS_P1;PMS_P2;Temp;Humidity;BMP_temperature;BMP_pressure;BME280_temperature;BME280_humidity;BME280_pressure;Samples;Min_cycle;Max_cycle;Signal;HPM_P1;HPM_P2
2023/08/07 00:00:36;;;;;;;3.60;1.13;;;16.50;99.90;;;;;;6094694;23;20204;-87
2023/08/07 00:03:02;;;;;;;0.37;0.30;;;16.40;99.90;;;;;;6094749;23;20210;-87
2023/08/07 00:05:30;;;;;;;4.67;1.20;;;16.30;99.90;;;;;;6094874;23;20199;-86
2023/08/07 00:07:56;;;;;;;1.27;0.67;;;16.30;99.90;;;;;;6119698;23;20152;-87
2023/08/07 00:10:22;;;;;;;3.83;0.60;;;16.30;99.90;;;;;;6119062;23;20672;-86
2023/08/07 00:12:48;;;;;;;0.60;0.60;;;16.20;99.90;;;;;;6118594;23;20207;-87
2023/08/07 00:15:14;;;;;;;0.57;0.57;;;16.20;99.90;;;;;;6095034;23;20251;-88
2023/08/07 00:17:40;;;;;;;1.03;1.03;;;16.20;99.90;;;;;;6094411;23;20717;-87
2023/08/07 00:20:07;;;;;;;2.90;1.50;;;16.10;99.90;;;;;;6095364;23;20283;-87
2023/08/07 00:22:33;;;;;;;4.93;0.50;;;16.10;99.90;;;;;;6094620;23;20656;-87
2023/08/07 00:24:59;;;;;;;1.00;0.70;;;16.10;99.90;;;;;;6118716;23;20204;-85
2023/08/07 00:27:25;;;;;;;3.67;0.97;;;16.10;99.90;;;;;;6118794;23;21035;-87
2023/08/07 00:29:51;;;;;;;5.73;1.57;;;16.00;99.90;;;;;;6094522;23;20645;-86
2023/08/07 00:32:16;;;;;;;3.10;1.20;;;16.00;99.90;;;;;;6094076;23;20163;-86
2023/08/07 00:34:42;;;;;;;6.80;1.00;;;16.00;99.90;;;;;;6094661;23;20284;-87
2023/08/07 00:37:08;;;;;;;1.73;1.00;;;16.00;99.90;;;;;;6093884;23;20219;-87
2023/08/07 00:39:33;;;;;;;0.53;0.53;;;16.00;99.90;;;;;;6118316;23;20196;-87
2023/08/07 00:41:59;;;;;;;2.73;0.97;;;16.10;99.90;;;;;;6094024;23;20242;-86
2023/08/07 00:44:25;;;;;;;0.63;0.50;;;16.10;99.90;;;;;;6118422;23;20164;-86
2023/08/07 00:46:51;;;;;;;1.20;0.80;;;16.10;99.90;;;;;;6094762;23;20153;-86
2023/08/07 00:49:18;;;;;;;1.73;0.87;;;16.00;99.90;;;;;;6094068;23;20535;-87
2023/08/07 00:51:45;;;;;;;5.07;0.97;;;16.00;99.90;;;;;;6118466;23;20207;-86
2023/08/07 00:54:14;;;;;;;2.03;1.27;;;16.00;99.90;;;;;;6118298;23;20284;-86
2023/08/07 00:56:40;;;;;;;2.50;1.53;;;16.00;99.90;;;;;;6118804;23;20637;-86
2023/08/07 00:59:06;;;;;;;1.87;0.97;;;16.00;99.90;;;;;;6118819;23;20259;-87
2023/08/07 01:01:33;;;;;;;1.40;0.90;;;16.10;99.90;;;;;;6118756;23;21290;-86
2023/08/07 01:03:59;;;;;;;3.80;1.07;;;16.10;99.90;;;;;;6093933;23;20207;-86
2023/08/07 01:06:25;;;;;;;1.53;1.07;;;16.10;99.90;;;;;;6118679;23;20246;-86
2023/08/07 01:08:50;;;;;;;3.43;1.77;;;16.20;99.90;;;;;;6093718;23;20210;-87
2023/08/07 01:11:42;;;;;;;6.47;1.30;;;16.10;99.90;;;;;;6118265;23;20214;-86
2023/08/07 01:14:18;;;;;;;1.43;1.00;;;16.10;99.90;;;;;;6118324;23;20504;-86
2023/08/07 01:17:03;;;;;;;5.13;1.70;;;16.10;99.90;;;;;;6118801;23;20215;-86
2023/08/07 01:19:30;;;;;;;3.53;1.33;;;16.00;99.90;;;;;;6117967;23;20214;-86
2023/08/07 01:22:13;;;;;;;3.27;0.90;;;15.90;99.90;;;;;;6118188;23;20958;-86
2023/08/07 01:24:44;;;;;;;4.00;1.30;;;15.90;99.90;;;;;;6093775;23;20192;-86
2023/08/07 01:27:18;;;;;;;1.40;1.30;;;15.90;99.90;;;;;;6094127;23;20202;-86
2023/08/07 01:30:14;;;;;;;4.00;1.40;;;15.80;99.90;;;;;;6117724;23;20674;-86
2023/08/07 01:32:59;;;;;;;2.20;1.30;;;15.80;99.90;;;;;;6118491;23;20259;-87
2023/08/07 01:35:30;;;;;;;11.27;2.07;;;15.80;99.90;;;;;;6117716;23;20207;-86
2023/08/07 01:37:57;;;;;;;2.87;1.00;;;15.80;99.90;;;;;;6118825;23;20579;-86
2023/08/07 01:40:23;;;;;;;3.10;1.60;;;15.80;99.90;;;;;;6093318;23;20283;-86
2023/08/07 01:42:49;;;;;;;7.53;1.73;;;15.90;99.90;;;;;;6093437;23;20196;-87
2023/08/07 01:45:26;;;;;;;1.77;1.20;;;15.90;99.90;;;;;;6069705;23;20278;-86
2023/08/07 01:47:52;;;;;;;1.67;0.83;;;15.90;99.90;;;;;;6118170;23;20215;-86
2023/08/07 01:50:22;;;;;;;1.30;1.20;;;16.00;99.90;;;;;;6118193;23;20588;-87
2023/08/07 01:52:48;;;;;;;1.03;1.00;;;16.00;99.90;;;;;;6118068;23;20194;-87
2023/08/07 01:55:15;;;;;;;2.00;0.73;;;16.00;99.90;;;;;;6093534;23;20283;-86
2023/08/07 01:57:41;;;;;;;1.60;1.50;;;16.10;99.90;;;;;;6117927;23;20274;-87
2023/08/07 02:00:08;;;;;;;1.13;1.03;;;16.10;99.90;;;;;;6093378;23;20215;-87
2023/08/07 02:02:34;;;;;;;0.80;0.70;;;16.20;99.90;;;;;;6094150;23;20243;-86
2023/08/07 02:05:00;;;;;;;2.40;0.60;;;16.20;99.90;;;;;;6093700;23;20170;-86
2023/08/07 02:07:26;;;;;;;2.37;1.30;;;16.20;99.90;;;;;;6093728;23;20608;-86
2023/08/07 02:09:51;;;;;;;0.70;0.70;;;16.20;99.90;;;;;;6117722;23;20238;-86
2023/08/07 02:12:17;;;;;;;1.00;1.00;;;16.20;99.90;;;;;;6093204;23;20196;-86
2023/08/07 02:14:43;;;;;;;1.87;1.20;;;16.30;99.90;;;;;;6118396;23;20211;-87
2023/08/07 02:17:09;;;;;;;1.60;0.97;;;16.30;99.90;;;;;;6118283;23;20192;-86
2023/08/07 02:19:35;;;;;;;1.13;1.03;;;16.30;99.90;;;;;;6118925;23;20164;-88
2023/08/07 02:22:01;;;;;;;1.07;0.70;;;16.30;99.90;;;;;;6093666;23;20586;-87
2023/08/07 02:24:27;;;;;;;6.73;2.00;;;16.30;99.90;;;;;;6118238;23;20208;-88
2023/08/07 02:26:53;;;;;;;2.50;0.97;;;16.10;99.90;;;;;;6093382;23;20227;-88
2023/08/07 02:29:18;;;;;;;1.90;1.13;;;15.80;99.90;;;;;;6093703;23;20223;-88
2023/08/07 02:31:44;;;;;;;0.87;0.40;;;15.90;99.90;;;;;;6094316;23;20579;-88
2023/08/07 02:34:10;;;;;;;12.23;1.53;;;15.90;99.90;;;;;;6092797;23;20306;-88
2023/08/07 02:36:36;;;;;;;8.23;1.10;;;15.80;99.90;;;;;;6093675;23;20207;-87
2023/08/07 02:39:02;;;;;;;7.20;1.20;;;15.70;99.90;;;;;;6093464;23;20227;-87
2023/08/07 02:41:28;;;;;;;1.20;1.03;;;15.80;99.90;;;;;;6117929;23;20245;-88
2023/08/07 02:43:53;;;;;;;3.73;0.43;;;15.80;99.90;;;;;;6094125;23;20184;-87
2023/08/07 02:46:19;;;;;;;2.03;0.87;;;15.70;99.90;;;;;;6094374;23;20271;-88
2023/08/07 02:48:45;;;;;;;0.73;0.73;;;15.80;99.90;;;;;;6095568;23;20271;-88
2023/08/07 02:51:11;;;;;;;0.80;0.70;;;15.80;99.90;;;;;;6095475;23;20198;-87
2023/08/07 02:53:36;;;;;;;1.13;0.70;;;15.90;99.90;;;;;;6094925;23;20207;-88
2023/08/07 02:56:02;;;;;;;0.67;0.50;;;15.90;99.90;;;;;;6095998;23;20266;-88
2023/08/07 02:58:28;;;;;;;1.13;0.83;;;15.90;99.90;;;;;;6095114;23;20195;-87
2023/08/07 03:00:54;;;;;;;0.67;0.50;;;15.90;99.90;;;;;;6095417;23;20204;-89
2023/08/07 03:03:19;;;;;;;0.73;0.43;;;15.90;99.90;;;;;;6095624;23;20202;-87
2023/08/07 03:05:52;;;;;;;0.90;0.53;;;15.90;99.90;;;;;;6095242;23;20305;-87
2023/08/07 03:08:18;;;;;;;5.63;1.43;;;15.90;99.90;;;;;;6119560;23;20255;-87
2023/08/07 03:10:55;;;;;;;2.33;0.93;;;15.90;99.90;;;;;;6096068;23;20194;-87
2023/08/07 03:13:22;;;;;;;1.70;1.57;;;15.90;99.90;;;;;;6119512;23;20231;-87
2023/08/07 03:15:49;;;;;;;0.60;0.60;;;15.90;99.90;;;;;;6095638;23;20706;-87
2023/08/07 03:18:18;;;;;;;11.87;1.50;;;16.00;99.90;;;;;;6095814;23;20194;-87
2023/08/07 03:20:44;;;;;;;0.80;0.80;;;16.00;99.90;;;;;;6119570;23;20945;-86
2023/08/07 03:23:11;;;;;;;1.00;0.90;;;15.80;99.90;;;;;;6119729;23;20160;-87
2023/08/07 03:25:37;;;;;;;4.80;1.10;;;15.60;99.90;;;;;;6095507;23;20548;-87
2023/08/07 03:28:03;;;;;;;1.60;1.27;;;15.50;99.90;;;;;;6094788;23;20239;-88
2023/08/07 03:30:29;;;;;;;0.67;0.50;;;15.40;99.90;;;;;;6094997;23;20266;-87
2023/08/07 03:32:54;;;;;;;0.77;0.47;;;15.40;99.90;;;;;;6094941;23;20282;-87
2023/08/07 03:35:20;;;;;;;2.30;2.10;;;15.40;99.90;;;;;;6094750;23;20538;-88
2023/08/07 03:37:46;;;;;;;0.50;0.50;;;15.40;99.90;;;;;;6096116;23;20590;-87
2023/08/07 03:40:12;;;;;;;2.20;0.90;;;15.40;99.90;;;;;;6094729;23;20204;-88
2023/08/07 03:42:37;;;;;;;0.50;0.50;;;15.40;99.90;;;;;;6095170;23;20217;-87
2023/08/07 03:45:03;;;;;;;0.43;0.43;;;15.30;99.90;;;;;;6094652;23;20272;-87
2023/08/07 03:47:29;;;;;;;0.73;0.73;;;15.30;99.90;;;;;;6095013;23;20216;-88
2023/08/07 03:49:55;;;;;;;8.13;1.53;;;15.30;99.90;;;;;;6095589;23;20160;-86
2023/08/07 03:52:20;;;;;;;3.13;1.90;;;15.30;99.90;;;;;;6094799;23;20634;-88
2023/08/07 03:54:46;;;;;;;1.83;1.00;;;15.30;99.90;;;;;;6095057;23;20255;-86
2023/08/07 03:57:12;;;;;;;5.70;0.97;;;15.20;99.90;;;;;;6119070;23;20223;-85
2023/08/07 03:59:38;;;;;;;1.17;1.07;;;15.30;99.90;;;;;;6095059;23;20587;-88
2023/08/07 04:02:04;;;;;;;0.53;0.43;;;15.30;99.90;;;;;;6095381;23;20175;-86
2023/08/07 04:04:30;;;;;;;11.30;0.93;;;15.30;99.90;;;;;;6094819;23;20234;-87
2023/08/07 04:06:55;;;;;;;0.87;0.87;;;15.40;99.90;;;;;;6094221;23;20196;-85
2023/08/07 04:09:21;;;;;;;3.93;1.17;;;15.30;99.90;;;;;;6094400;23;20547;-86
2023/08/07 04:11:47;;;;;;;1.47;1.10;;;15.30;99.90;;;;;;6094717;23;20196;-88
2023/08/07 04:14:13;;;;;;;4.40;1.70;;;15.30;99.90;;;;;;6094402;23;20622;-88
2023/08/07 04:16:39;;;;;;;0.17;0.17;;;15.30;99.90;;;;;;6095381;23;20482;-87
2023/08/07 04:19:07;;;;;;;2.10;0.80;;;15.20;99.90;;;;;;6094654;23;20266;-86
2023/08/07 04:21:33;;;;;;;0.60;0.60;;;15.20;99.90;;;;;;6118941;23;20204;-88
2023/08/07 04:24:07;;;;;;;2.97;1.13;;;15.20;99.90;;;;;;6094803;23;20288;-89
2023/08/07 04:26:34;;;;;;;2.20;2.00;;;15.20;99.90;;;;;;6096654;23;20191;-87
2023/08/07 04:29:00;;;;;;;2.37;0.93;;;15.20;99.90;;;;;;6094625;23;20160;-86
2023/08/07 04:31:25;;;;;;;1.33;1.13;;;15.20;99.90;;;;;;6094260;23;20200;-87
2023/08/07 04:33:51;;;;;;;1.40;1.07;;;15.30;99.90;;;;;;6094058;23;20227;-88
2023/08/07 04:36:17;;;;;;;3.80;0.60;;;15.40;99.90;;;;;;6094183;23;20203;-86
2023/08/07 04:38:42;;;;;;;8.43;1.77;;;15.50;99.90;;;;;;6094474;23;20616;-87
2023/08/07 04:41:08;;;;;;;7.10;1.87;;;15.60;99.90;;;;;;6118886;23;20247;-87
2023/08/07 04:43:34;;;;;;;3.23;1.13;;;15.60;99.90;;;;;;6095195;23;20182;-87
2023/08/07 04:46:00;;;;;;;2.90;2.00;;;15.60;99.90;;;;;;6094306;23;20199;-87
2023/08/07 04:48:26;;;;;;;9.83;1.87;;;15.50;99.90;;;;;;6118454;23;20191;-88
2023/08/07 04:50:52;;;;;;;5.00;0.83;;;15.70;99.90;;;;;;6094236;23;20509;-86
2023/08/07 04:53:17;;;;;;;0.87;0.87;;;15.70;99.90;;;;;;6118275;23;20246;-89
2023/08/07 04:55:43;;;;;;;1.70;1.30;;;15.70;99.90;;;;;;6095524;23;20219;-87
2023/08/07 04:58:09;;;;;;;1.27;1.17;;;15.70;99.90;;;;;;6094087;23;20684;-86
2023/08/07 05:00:36;;;;;;;0.63;0.63;;;15.70;99.90;;;;;;6094479;23;20199;-88
2023/08/07 05:03:02;;;;;;;0.60;0.60;;;15.70;99.90;;;;;;6118507;23;20191;-88
2023/08/07 05:05:28;;;;;;;0.87;0.43;;;15.70;99.90;;;;;;6095121;23;20204;-88
2023/08/07 05:07:55;;;;;;;0.20;0.20;;;15.50;99.90;;;;;;6095166;23;20473;-87
2023/08/07 05:10:21;;;;;;;0.67;0.47;;;15.30;99.90;;;;;;6118522;23;20196;-88
2023/08/07 05:12:46;;;;;;;4.00;0.33;;;15.40;99.90;;;;;;6094633;23;20717;-88
2023/08/07 05:15:12;;;;;;;4.23;2.33;;;15.30;99.90;;;;;;6093950;23;20195;-88
2023/08/07 05:17:38;;;;;;;1.13;0.60;;;15.20;99.90;;;;;;6118307;23;20254;-87
2023/08/07 05:20:05;;;;;;;2.03;1.13;;;15.20;99.90;;;;;;6094489;23;20167;-88
2023/08/07 05:22:31;;;;;;;7.60;1.30;;;15.20;99.90;;;;;;6070284;23;20713;-88
2023/08/07 05:24:57;;;;;;;4.43;1.30;;;15.20;99.90;;;;;;6093358;23;20274;-87
2023/08/07 05:27:22;;;;;;;1.40;1.20;;;15.20;99.90;;;;;;6093234;23;20204;-86
2023/08/07 05:29:48;;;;;;;2.80;0.80;;;15.20;99.90;;;;;;6093321;23;20200;-87
2023/08/07 05:32:14;;;;;;;0.47;0.40;;;15.30;99.90;;;;;;6093609;23;20168;-88
2023/08/07 05:34:41;;;;;;;0.43;0.40;;;15.40;99.90;;;;;;6119254;23;20251;-88
2023/08/07 05:37:07;;;;;;;1.03;0.67;;;15.40;99.90;;;;;;6118273;23;20223;-85
2023/08/07 05:39:35;;;;;;;0.87;0.50;;;15.40;99.90;;;;;;6119514;23;20220;-87
2023/08/07 05:42:01;;;;;;;3.87;0.90;;;15.50;99.90;;;;;;6117990;23;20738;-86
2023/08/07 05:44:28;;;;;;;1.17;0.63;;;15.60;99.90;;;;;;6094062;23;20164;-88
2023/08/07 05:46:53;;;;;;;0.53;0.53;;;15.50;99.90;;;;;;6094615;23;20164;-89
2023/08/07 05:49:21;;;;;;;1.83;0.60;;;15.50;99.90;;;;;;6119528;23;20199;-88
2023/08/07 05:51:47;;;;;;;1.23;0.67;;;15.60;99.90;;;;;;6117896;23;20287;-88
2023/08/07 05:54:12;;;;;;;1.30;0.73;;;15.70;99.90;;;;;;6093906;23;20260;-88
2023/08/07 05:56:38;;;;;;;0.93;0.63;;;15.50;99.90;;;;;;6093884;23;20203;-83
2023/08/07 05:59:04;;;;;;;0.50;0.50;;;15.30;99.90;;;;;;6118585;23;20175;-86
2023/08/07 06:01:30;;;;;;;4.13;0.83;;;15.20;99.90;;;;;;6093188;23;20695;-87
2023/08/07 06:03:57;;;;;;;0.37;0.37;;;15.20;99.90;;;;;;6093347;23;20766;-85
2023/08/07 06:06:23;;;;;;;1.80;0.60;;;15.20;99.90;;;;;;6093877;23;20191;-88
2023/08/07 06:08:49;;;;;;;1.67;1.00;;;15.30;99.90;;;;;;6093875;23;20296;-86
2023/08/07 06:11:14;;;;;;;0.30;0.30;;;15.50;99.90;;;;;;6092734;23;20165;-87
2023/08/07 06:13:41;;;;;;;3.17;0.63;;;15.60;99.90;;;;;;6093987;23;20247;-85
2023/08/07 06:16:06;;;;;;;1.23;0.53;;;15.70;99.90;;;;;;6092541;23;20266;-87
2023/08/07 06:18:32;;;;;;;0.93;0.93;;;15.30;99.90;;;;;;6093661;23;20204;-87
2023/08/07 06:20:58;;;;;;;0.40;0.30;;;15.10;99.90;;;;;;6093854;23;20196;-87
2023/08/07 06:23:24;;;;;;;0.93;0.67;;;15.00;99.90;;;;;;6095416;23;20202;-88
2023/08/07 06:25:50;;;;;;;7.00;0.77;;;14.90;99.90;;;;;;6095821;23;20168;-87
2023/08/07 06:28:15;;;;;;;0.67;0.53;;;15.00;99.90;;;;;;6095246;23;20196;-87
2023/08/07 06:30:41;;;;;;;0.40;0.40;;;15.00;99.90;;;;;;6095425;23;20680;-86
2023/08/07 06:33:07;;;;;;;1.47;0.97;;;15.20;99.90;;;;;;6094650;23;20196;-87
2023/08/07 06:35:38;;;;;;;0.30;0.30;;;15.30;99.90;;;;;;6119300;23;20207;-88
2023/08/07 06:38:04;;;;;;;0.37;0.37;;;15.60;99.90;;;;;;6096381;23;20972;-87
2023/08/07 06:40:34;;;;;;;2.00;0.90;;;15.70;99.90;;;;;;6071595;23;20542;-87
2023/08/07 06:43:00;;;;;;;4.33;0.90;;;15.70;99.90;;;;;;6096000;23;20200;-85
2023/08/07 06:45:26;;;;;;;1.80;1.70;;;15.10;99.90;;;;;;6094565;23;20704;-85
2023/08/07 06:47:52;;;;;;;1.60;0.50;;;14.80;99.90;;;;;;6094782;23;20251;-87
2023/08/07 06:50:17;;;;;;;0.33;0.33;;;14.70;99.90;;;;;;6094331;23;20184;-86
2023/08/07 06:52:43;;;;;;;0.77;0.73;;;14.90;99.90;;;;;;6095497;23;20200;-87
2023/08/07 06:55:09;;;;;;;0.97;0.87;;;15.00;99.90;;;;;;6095219;23;20716;-86
2023/08/07 06:57:35;;;;;;;0.53;0.53;;;15.10;99.90;;;;;;6119595;23;20199;-88
2023/08/07 07:00:00;;;;;;;0.93;0.33;;;15.10;99.90;;;;;;6119628;23;20192;-89
2023/08/07 07:02:26;;;;;;;0.70;0.70;;;15.30;99.90;;;;;;6095393;23;20165;-85
2023/08/07 07:04:52;;;;;;;0.80;0.33;;;15.50;99.90;;;;;;6120230;23;20508;-86
2023/08/07 07:07:18;;;;;;;0.47;0.47;;;16.00;99.90;;;;;;6094778;23;20195;-87
2023/08/07 07:09:43;;;;;;;5.50;0.87;;;16.30;99.90;;;;;;6095033;23;20207;-88
2023/08/07 07:12:09;;;;;;;0.90;0.90;;;16.10;99.90;;;;;;6118954;23;20195;-86
2023/08/07 07:14:35;;;;;;;3.17;0.73;;;15.60;99.90;;;;;;6094932;23;20215;-88
2023/08/07 07:17:01;;;;;;;0.93;0.87;;;15.10;99.90;;;;;;6120281;23;20180;-85
2023/08/07 07:19:26;;;;;;;0.57;0.57;;;14.70;99.90;;;;;;6094318;23;20290;-85
2023/08/07 07:21:53;;;;;;;5.73;1.93;;;14.50;99.90;;;;;;6094786;23;20664;-85
2023/08/07 07:24:18;;;;;;;0.37;0.37;;;14.50;99.90;;;;;;6094805;23;20195;-87
2023/08/07 07:26:44;;;;;;;2.60;1.27;;;14.60;99.90;;;;;;6094270;23;20279;-87
2023/08/07 07:29:10;;;;;;;1.63;1.53;;;14.70;99.90;;;;;;6095122;23;20164;-87
2023/08/07 07:31:36;;;;;;;0.97;0.97;;;14.80;99.90;;;;;;6095362;23;20173;-87
2023/08/07 07:34:02;;;;;;;0.63;0.60;;;14.80;99.90;;;;;;6094924;23;20208;-87
2023/08/07 07:36:28;;;;;;;1.37;1.27;;;15.00;99.90;;;;;;6094400;23;20207;-86
2023/08/07 07:38:54;;;;;;;0.23;0.23;;;15.30;99.90;;;;;;6094934;23;20196;-87
2023/08/07 07:41:21;;;;;;;2.10;0.70;;;15.30;99.90;;;;;;6094914;23;20495;-88
2023/08/07 07:43:47;;;;;;;0.57;0.57;;;15.50;99.90;;;;;;6096084;23;20177;-87
2023/08/07 07:46:13;;;;;;;0.50;0.50;;;15.70;99.90;;;;;;6094525;23;20284;-85
2023/08/07 07:48:39;;;;;;;0.60;0.60;;;15.90;99.90;;;;;;6094962;23;20299;-86
2023/08/07 07:51:05;;;;;;;0.60;0.60;;;16.20;99.90;;;;;;6094407;23;20637;-88
2023/08/07 07:53:31;;;;;;;0.57;0.57;;;16.40;99.90;;;;;;6095026;23;20207;-87
2023/08/07 07:55:57;;;;;;;0.30;0.30;;;16.80;99.90;;;;;;6095956;23;20210;-86
2023/08/07 07:58:23;;;;;;;0.63;0.60;;;16.70;99.90;;;;;;6094796;23;20266;-86
2023/08/07 08:00:52;;;;;;;0.87;0.87;;;16.70;99.90;;;;;;6094393;23;20200;-86
2023/08/07 08:03:18;;;;;;;0.20;0.20;;;16.70;99.90;;;;;;6094453;23;20252;-87
2023/08/07 08:05:43;;;;;;;0.50;0.50;;;16.60;99.90;;;;;;6094565;23;20195;-86
2023/08/07 08:08:10;;;;;;;0.53;0.50;;;17.40;99.90;;;;;;6094459;23;20160;-86
2023/08/07 08:10:36;;;;;;;0.70;0.67;;;17.70;99.90;;;;;;6119744;23;20164;-87
2023/08/07 08:13:03;;;;;;;1.20;0.73;;;17.80;99.90;;;;;;6118784;23;20238;-86
2023/08/07 08:15:30;;;;;;;0.47;0.47;;;18.00;99.90;;;;;;6118764;23;20963;-87
2023/08/07 08:17:55;;;;;;;2.03;0.77;;;18.40;99.90;;;;;;6094921;23;20219;-87
2023/08/07 08:20:21;;;;;;;0.47;0.47;;;17.70;99.90;;;;;;6094640;23;20160;-87
2023/08/07 08:22:47;;;;;;;3.80;1.07;;;17.10;99.90;;;;;;6095645;23;20171;-86
2023/08/07 08:25:13;;;;;;;6.63;1.37;;;18.10;99.90;;;;;;6094884;23;20283;-88
2023/08/07 08:27:40;;;;;;;0.43;0.40;;;18.40;99.90;;;;;;6094374;23;20199;-86
2023/08/07 08:30:07;;;;;;;2.20;0.53;;;18.40;99.90;;;;;;6094885;23;20961;-88
2023/08/07 08:32:33;;;;;;;1.60;0.53;;;18.50;99.90;;;;;;6120927;23;20286;-90
2023/08/07 08:34:59;;;;;;;2.03;1.33;;;18.90;99.90;;;;;;6096019;23;20303;-87
2023/08/07 08:37:25;;;;;;;3.10;1.40;;;18.30;99.90;;;;;;6094511;23;20227;-86
2023/08/07 08:39:51;;;;;;;2.87;0.90;;;17.80;99.90;;;;;;6094938;23;20211;-87
2023/08/07 08:42:20;;;;;;;0.53;0.53;;;17.50;99.90;;;;;;6094814;23;20198;-85
2023/08/07 08:44:53;;;;;;;0.63;0.60;;;17.20;99.90;;;;;;6094070;23;20203;-87
2023/08/07 08:47:21;;;;;;;0.23;0.23;;;17.30;99.90;;;;;;6118585;23;20204;-87
2023/08/07 08:49:51;;;;;;;0.20;0.20;;;17.40;99.90;;;;;;6119282;23;20159;-87
2023/08/07 08:52:18;;;;;;;2.00;0.80;;;17.10;99.90;;;;;;6117844;23;20199;-87
2023/08/07 08:54:44;;;;;;;1.53;0.80;;;16.70;99.90;;;;;;6118229;23;20211;-87
2023/08/07 08:57:11;;;;;;;4.13;1.00;;;16.60;99.90;;;;;;6094518;23;20250;-86
2023/08/07 08:59:38;;;;;;;3.17;1.30;;;16.50;99.90;;;;;;6118597;23;20202;-86
2023/08/07 09:02:04;;;;;;;2.40;0.90;;;16.50;99.90;;;;;;6095286;23;20171;-88
2023/08/07 09:04:30;;;;;;;0.80;0.80;;;16.50;99.90;;;;;;6093897;23;20653;-87
2023/08/07 09:06:56;;;;;;;0.77;0.53;;;16.70;99.90;;;;;;6093888;23;20200;-88
2023/08/07 09:09:23;;;;;;;1.13;0.70;;;18.00;99.90;;;;;;6094235;23;20291;-87
2023/08/07 09:11:51;;;;;;;0.77;0.50;;;18.50;99.90;;;;;;6094880;23;20192;-87
2023/08/07 09:14:20;;;;;;;0.23;0.23;;;18.60;99.90;;;;;;6118099;23;20581;-88
2023/08/07 09:16:48;;;;;;;2.50;1.03;;;18.90;99.90;;;;;;6119500;23;20589;-86
2023/08/07 09:19:14;;;;;;;3.10;0.67;;;18.20;99.90;;;;;;6117500;23;21258;-87
2023/08/07 09:21:40;;;;;;;1.67;0.90;;;17.30;99.90;;;;;;6093612;23;20223;-87
2023/08/07 09:24:05;;;;;;;1.10;1.00;;;17.10;99.90;;;;;;6118642;23;21080;-85
2023/08/07 09:26:34;;;;;;;1.70;0.53;;;16.90;99.90;;;;;;6093534;23;20578;-87
2023/08/07 09:29:01;;;;;;;2.43;0.90;;;16.80;99.90;;;;;;6094093;23;20162;-88
2023/08/07 09:31:30;;;;;;;1.53;0.70;;;16.70;99.90;;;;;;6092031;23;20208;-86
2023/08/07 09:34:04;;;;;;;3.17;0.90;;;16.50;99.90;;;;;;6094014;23;20230;-86
2023/08/07 09:36:31;;;;;;;0.47;0.40;;;16.60;99.90;;;;;;6118825;23;20215;-89
2023/08/07 09:39:01;;;;;;;2.20;1.33;;;16.80;99.90;;;;;;6118162;23;20219;-87
2023/08/07 09:41:29;;;;;;;3.30;0.37;;;17.00;99.90;;;;;;6116830;23;20195;-85
2023/08/07 09:43:58;;;;;;;0.60;0.60;;;17.30;99.90;;;;;;6093641;23;20163;-87
2023/08/07 09:46:26;;;;;;;1.33;0.90;;;17.40;99.90;;;;;;6093382;23;20204;-89
2023/08/07 09:48:52;;;;;;;4.83;1.40;;;17.10;99.90;;;;;;6117840;23;20302;-85
2023/08/07 09:51:18;;;;;;;2.57;1.37;;;17.00;99.90;;;;;;6093296;23;20254;-88
2023/08/07 09:53:43;;;;;;;1.13;0.83;;;16.80;99.90;;;;;;6093303;23;20587;-89
2023/08/07 09:56:10;;;;;;;1.33;0.80;;;16.80;99.90;;;;;;6093904;23;20214;-86
2023/08/07 09:58:35;;;;;;;2.13;0.73;;;16.50;99.90;;;;;;6094726;23;20167;-87
2023/08/07 10:01:04;;;;;;;0.30;0.30;;;16.50;99.90;;;;;;6094546;23;20641;-90
2023/08/07 10:03:30;;;;;;;1.17;0.50;;;16.50;99.90;;;;;;6093786;23;20196;-89
2023/08/07 10:05:56;;;;;;;0.77;0.50;;;17.60;99.90;;;;;;6094311;23;20215;-87
2023/08/07 10:08:22;;;;;;;0.23;0.23;;;18.20;99.90;;;;;;6094192;23;20553;-87
2023/08/07 10:10:48;;;;;;;0.70;0.40;;;18.30;99.90;;;;;;6119319;23;20260;-87
2023/08/07 10:13:14;;;;;;;2.10;1.00;;;18.60;99.90;;;;;;6117971;23;20231;-88
2023/08/07 10:15:41;;;;;;;2.03;0.47;;;18.60;99.90;;;;;;6094367;23;20582;-87
2023/08/07 10:18:11;;;;;;;1.17;0.70;;;18.90;99.90;;;;;;6093829;23;20195;-89
2023/08/07 10:20:36;;;;;;;6.43;1.10;;;19.10;99.90;;;;;;6118263;23;20842;-88
2023/08/07 10:23:10;;;;;;;1.07;0.93;;;19.80;99.90;;;;;;6119197;23;20178;-88
2023/08/07 10:25:41;;;;;;;2.60;1.17;;;18.70;99.90;;;;;;6094931;23;20191;-87
2023/08/07 10:28:10;;;;;;;0.50;0.50;;;18.40;99.90;;;;;;6118567;23;20255;-87
2023/08/07 10:30:38;;;;;;;1.17;0.50;;;18.10;99.90;;;;;;6118141;23;20255;-89
2023/08/07 10:33:05;;;;;;;0.57;0.53;;;19.00;99.90;;;;;;6094606;23;20203;-86
2023/08/07 10:35:33;;;;;;;1.70;0.93;;;19.60;99.90;;;;;;6093762;23;20641;-89
2023/08/07 10:38:07;;;;;;;1.63;1.10;;;19.40;99.90;;;;;;6094866;23;20160;-90
2023/08/07 10:40:33;;;;;;;5.10;1.40;;;19.20;99.90;;;;;;6094590;23;20204;-90
2023/08/07 10:43:19;;;;;;;2.67;0.93;;;19.00;99.90;;;;;;6094616;23;20207;-90
2023/08/07 10:45:45;;;;;;;6.00;1.90;;;18.80;99.90;;;;;;6120017;23;20204;-89
2023/08/07 10:48:12;;;;;;;9.93;2.23;;;18.80;99.90;;;;;;6093772;23;20204;-90
2023/08/07 10:51:00;;;;;;;1.03;0.70;;;18.70;99.90;;;;;;6118346;23;20326;-90
2023/08/07 10:53:37;;;;;;;0.90;0.70;;;19.10;99.90;;;;;;6118240;23;20180;-89
2023/08/07 10:56:09;;;;;;;1.33;0.70;;;18.60;99.90;;;;;;6120051;23;20148;-90
2023/08/07 10:58:37;;;;;;;4.43;0.93;;;18.80;99.90;;;;;;6094927;23;20646;-91
2023/08/07 11:01:22;;;;;;;4.10;1.00;;;18.90;99.90;;;;;;6119040;23;20275;-89
2023/08/07 11:03:59;;;;;;;4.30;1.23;;;18.60;99.90;;;;;;6119309;23;20203;-88
2023/08/07 11:06:34;;;;;;;1.63;1.10;;;18.40;99.90;;;;;;6095466;23;20198;-90
2023/08/07 11:09:04;;;;;;;4.90;1.37;;;18.10;99.90;;;;;;6121061;23;20724;-89
2023/08/07 11:11:42;;;;;;;3.60;1.20;;;18.20;99.90;;;;;;6120742;23;20196;-89
2023/08/07 11:14:09;;;;;;;9.73;1.60;;;18.50;99.90;;;;;;6122324;23;20186;-90
2023/08/07 11:16:35;;;;;;;1.07;0.80;;;18.80;99.90;;;;;;6097195;23;20634;-88
2023/08/07 11:19:02;;;;;;;1.83;0.90;;;18.90;99.90;;;;;;6095870;23;20203;-88
2023/08/07 11:21:30;;;;;;;2.00;1.40;;;18.80;99.90;;;;;;6120708;23;20580;-90
2023/08/07 11:23:56;;;;;;;0.73;0.70;;;18.70;99.90;;;;;;6096774;23;20275;-87
2023/08/07 11:26:23;;;;;;;2.13;1.10;;;18.80;99.90;;;;;;6119880;23;20191;-90
2023/08/07 11:28:50;;;;;;;0.70;0.70;;;18.50;99.90;;;;;;6096889;23;20164;-88
2023/08/07 11:31:20;;;;;;;2.37;0.57;;;18.70;99.90;;;;;;6095855;23;20245;-88
2023/08/07 11:33:46;;;;;;;7.97;0.83;;;18.60;99.90;;;;;;6120585;23;20208;-87
2023/08/07 11:36:13;;;;;;;2.23;0.70;;;17.80;99.90;;;;;;6095354;23;20210;-89
2023/08/07 11:38:44;;;;;;;2.33;1.37;;;17.20;99.90;;;;;;6120115;23;20274;-89
2023/08/07 11:41:12;;;;;;;0.80;0.80;;;16.70;99.90;;;;;;6096092;23;20187;-89
2023/08/07 11:43:38;;;;;;;1.97;1.40;;;16.40;99.90;;;;;;6120106;23;20271;-91
2023/08/07 11:46:12;;;;;;;1.00;0.83;;;16.70;99.90;;;;;;6095104;23;20203;-88
2023/08/07 11:48:39;;;;;;;0.70;0.63;;;17.10;99.90;;;;;;6119669;23;20200;-90
2023/08/07 11:51:09;;;;;;;0.50;0.50;;;17.40;99.90;;;;;;6120317;23;20571;-88
2023/08/07 11:53:37;;;;;;;1.33;0.80;;;17.60;99.90;;;;;;6071917;23;20214;-89
2023/08/07 11:56:14;;;;;;;0.77;0.77;;;17.90;99.90;;;;;;6120435;23;20168;-90
2023/08/07 11:58:51;;;;;;;5.00;0.97;;;18.10;99.90;;;;;;6120391;23;20190;-88
2023/08/07 12:01:22;;;;;;;0.60;0.60;;;18.30;99.90;;;;;;6097517;23;20246;-87
2023/08/07 12:03:56;;;;;;;1.07;0.83;;;18.00;99.90;;;;;;6119484;23;20306;-89
2023/08/07 12:06:25;;;;;;;1.43;0.67;;;17.90;99.90;;;;;;6119148;23;20207;-87
2023/08/07 12:08:56;;;;;;;3.50;0.93;;;17.90;99.90;;;;;;6096580;23;20655;-86
2023/08/07 12:11:22;;;;;;;1.60;1.03;;;18.20;99.90;;;;;;6095291;23;20208;-89
2023/08/07 12:13:48;;;;;;;0.97;0.70;;;18.30;99.90;;;;;;6096341;23;20677;-88
2023/08/07 12:16:15;;;;;;;0.70;0.60;;;18.20;99.90;;;;;;6119268;23;20634;-88
2023/08/07 12:18:52;;;;;;;10.03;1.23;;;18.10;99.90;;;;;;6094382;23;20653;-87
2023/08/07 12:21:20;;;;;;;1.60;0.97;;;18.10;99.90;;;;;;6118747;23;20184;-89
2023/08/07 12:23:49;;;;;;;1.10;0.97;;;18.40;99.90;;;;;;6095336;23;20195;-88
2023/08/07 12:26:16;;;;;;;1.90;0.93;;;18.90;99.90;;;;;;6094793;23;20175;-92
2023/08/07 12:28:41;;;;;;;1.50;0.83;;;18.90;99.90;;;;;;6094993;23;20187;-87
2023/08/07 12:31:07;;;;;;;4.37;1.07;;;18.80;99.90;;;;;;6095878;23;20271;-90
2023/08/07 12:33:33;;;;;;;2.37;1.10;;;18.20;99.90;;;;;;6094591;23;20299;-89
2023/08/07 12:36:00;;;;;;;2.07;0.80;;;18.30;99.90;;;;;;6094577;23;20303;-89
2023/08/07 12:38:26;;;;;;;5.07;1.50;;;18.60;99.90;;;;;;6119016;23;20168;-89
2023/08/07 12:40:52;;;;;;;3.40;1.33;;;18.50;99.90;;;;;;6095321;23;20164;-89
2023/08/07 12:43:18;;;;;;;5.73;1.50;;;18.50;99.90;;;;;;6119391;23;20199;-89
2023/08/07 12:45:44;;;;;;;1.43;1.20;;;18.10;99.90;;;;;;6094396;23;20204;-89